sensor_id;sensor_type;location;lat;lon;timestamp;pressure;altitude;pressure_sealevel;temperature;humidity
17593;BME280;8915;51.760;14.300;2023-09-07T00:00:29;101779.31;;;14.77;82.94
17593;BME280;8915;51.760;14.300;2023-09-07T00:02:55;101773.56;;;14.75;83.16
17593;BME280;8915;51.760;14.300;2023-09-07T00:05:22;101773.09;;;14.73;83.38
17593;BME280;8915;51.760;14.300;2023-09-07T00:07:48;101770.00;;;14.71;83.46
17593;BME280;8915;51.760;14.300;2023-09-07T00:10:16;101772.53;;;14.67;83.09
17593;BME280;8915;51.760;14.300;2023-09-07T00:12:42;101770.50;;;14.64;83.10
17593;BME280;8915;51.760;14.300;2023-09-07T00:15:10;101776.13;;;14.63;82.84
17593;BME280;8915;51.760;14.300;2023-09-07T00:17:36;101762.72;;;14.59;83.03
17593;BME280;8915;51.760;14.300;2023-09-07T00:20:03;101759.94;;;14.56;82.83
17593;BME280;8915;51.760;14.300;2023-09-07T00:22:34;101772.78;;;14.54;83.39
17593;BME280;8915;51.760;14.300;2023-09-07T00:25:01;101767.78;;;14.52;83.30
17593;BME280;8915;51.760;14.300;2023-09-07T00:27:30;101766.53;;;14.50;84.08
17593;BME280;8915;51.760;14.300;2023-09-07T00:29:56;101764.19;;;14.48;84.16
17593;BME280;8915;51.760;14.300;2023-09-07T00:32:23;101775.16;;;14.47;84.20
17593;BME280;8915;51.760;14.300;2023-09-07T00:34:49;101772.84;;;14.45;84.10
17593;BME280;8915;51.760;14.300;2023-09-07T00:37:15;101774.25;;;14.43;84.71
17593;BME280;8915;51.760;14.300;2023-09-07T00:39:42;101771.13;;;14.41;84.47
17593;BME280;8915;51.760;14.300;2023-09-07T00:42:08;101778.66;;;14.39;84.66
17593;BME280;8915;51.760;14.300;2023-09-07T00:44:36;101780.06;;;14.36;84.67
17593;BME280;8915;51.760;14.300;2023-09-07T00:47:03;101778.03;;;14.33;84.75
17593;BME280;8915;51.760;14.300;2023-09-07T00:49:30;101773.38;;;14.30;84.29
17593;BME280;8915;51.760;14.300;2023-09-07T00:51:57;101779.00;;;14.29;85.13
17593;BME280;8915;51.760;14.300;2023-09-07T00:54:24;101775.88;;;14.27;85.06
17593;BME280;8915;51.760;14.300;2023-09-07T00:56:50;101771.22;;;14.24;85.03
17593;BME280;8915;51.760;14.300;2023-09-07T00:59:17;101775.31;;;14.21;84.45
17593;BME280;8915;51.760;14.300;2023-09-07T01:01:45;101782.47;;;14.21;85.06
17593;BME280;8915;51.760;14.300;2023-09-07T01:04:11;101766.06;;;14.19;85.32
17593;BME280;8915;51.760;14.300;2023-09-07T01:06:39;101774.66;;;14.16;85.28
17593;BME280;8915;51.760;14.300;2023-09-07T01:09:11;101771.25;;;14.15;85.21
17593;BME280;8915;51.760;14.300;2023-09-07T01:11:40;101768.75;;;14.10;85.12
17593;BME280;8915;51.760;14.300;2023-09-07T01:14:07;101767.22;;;14.09;85.06
17593;BME280;8915;51.760;14.300;2023-09-07T01:16:33;101772.84;;;14.08;85.15
17593;BME280;8915;51.760;14.300;2023-09-07T01:19:03;101770.50;;;14.06;85.31
17593;BME280;8915;51.760;14.300;2023-09-07T01:21:34;101765.50;;;14.05;85.76
17593;BME280;8915;51.760;14.300;2023-09-07T01:24:02;101767.69;;;14.03;85.98
17593;BME280;8915;51.760;14.300;2023-09-07T01:26:30;101763.00;;;14.00;86.01
17593;BME280;8915;51.760;14.300;2023-09-07T01:28:56;101777.41;;;13.99;86.10
17593;BME280;8915;51.760;14.300;2023-09-07T01:31:23;101773.94;;;13.98;86.56
17593;BME280;8915;51.760;14.300;2023-09-07T01:33:50;101763.97;;;13.95;86.17
17593;BME280;8915;51.760;14.300;2023-09-07T01:36:15;101768.81;;;13.93;86.11
17593;BME280;8915;51.760;14.300;2023-09-07T01:38:43;101767.25;;;13.92;86.87
17593;BME280;8915;51.760;14.300;2023-09-07T01:41:09;101764.16;;;13.90;86.38
17593;BME280;8915;51.760;14.300;2023-09-07T01:43:35;101763.69;;;13.88;86.69
17593;BME280;8915;51.760;14.300;2023-09-07T01:46:02;101765.88;;;13.86;86.79
17593;BME280;8915;51.760;14.300;2023-09-07T01:48:28;101768.09;;;13.84;86.83
17593;BME280;8915;51.760;14.300;2023-09-07T01:50:54;101766.06;;;13.81;86.91
17593;BME280;8915;51.760;14.300;2023-09-07T01:53:21;101767.16;;;13.80;87.10
17593;BME280;8915;51.760;14.300;2023-09-07T01:55:49;101769.69;;;13.77;86.72
17593;BME280;8915;51.760;14.300;2023-09-07T01:58:16;101765.47;;;13.76;87.48
17593;BME280;8915;51.760;14.300;2023-09-07T02:00:42;101769.53;;;13.73;87.21
17593;BME280;8915;51.760;14.300;2023-09-07T02:03:08;101767.97;;;13.72;87.56
17593;BME280;8915;51.760;14.300;2023-09-07T02:05:35;101763.75;;;13.71;87.62
17593;BME280;8915;51.760;14.300;2023-09-07T02:08:02;101772.03;;;13.70;87.58
17593;BME280;8915;51.760;14.300;2023-09-07T02:10:29;101762.06;;;13.67;87.47
17593;BME280;8915;51.760;14.300;2023-09-07T02:12:57;101771.13;;;13.66;87.49
17593;BME280;8915;51.760;14.300;2023-09-07T02:15:24;101773.28;;;13.64;87.80
17593;BME280;8915;51.760;14.300;2023-09-07T02:17:50;101771.75;;;13.63;87.75
17593;BME280;8915;51.760;14.300;2023-09-07T02:20:20;101770.50;;;13.60;87.74
17593;BME280;8915;51.760;14.300;2023-09-07T02:22:46;101771.91;;;13.58;87.99
17593;BME280;8915;51.760;14.300;2023-09-07T02:25:13;101775.66;;;13.57;88.07
17593;BME280;8915;51.760;14.300;2023-09-07T02:27:40;101767.25;;;13.55;88.08
17593;BME280;8915;51.760;14.300;2023-09-07T02:30:08;101771.31;;;13.52;87.70
17593;BME280;8915;51.760;14.300;2023-09-07T02:32:35;101777.69;;;13.51;87.76
17593;BME280;8915;51.760;14.300;2023-09-07T02:35:01;101772.72;;;13.50;87.51
17593;BME280;8915;51.760;14.300;2023-09-07T02:37:29;101774.91;;;13.48;87.78
17593;BME280;8915;51.760;14.300;2023-09-07T02:39:55;101767.59;;;13.45;87.61
17593;BME280;8915;51.760;14.300;2023-09-07T02:42:22;101773.97;;;13.44;87.90
17593;BME280;8915;51.760;14.300;2023-09-07T02:44:49;101775.38;;;13.41;87.90
17593;BME280;8915;51.760;14.300;2023-09-07T02:47:17;101771.97;;;13.41;88.04
17593;BME280;8915;51.760;14.300;2023-09-07T02:49:43;101781.31;;;13.38;87.93
17593;BME280;8915;51.760;14.300;2023-09-07T02:52:10;101777.41;;;13.36;87.71
17593;BME280;8915;51.760;14.300;2023-09-07T02:54:36;101773.97;;;13.35;88.02
17593;BME280;8915;51.760;14.300;2023-09-07T02:57:03;101779.94;;;13.32;88.08
17593;BME280;8915;51.760;14.300;2023-09-07T02:59:29;101781.00;;;13.31;88.06
17593;BME280;8915;51.760;14.300;2023-09-07T03:01:56;101774.94;;;13.31;88.33
17593;BME280;8915;51.760;14.300;2023-09-07T03:04:23;101779.44;;;13.30;88.80
17593;BME280;8915;51.760;14.300;2023-09-07T03:06:50;101777.09;;;13.29;88.42
17593;BME280;8915;51.760;14.300;2023-09-07T03:09:16;101775.09;;;13.26;88.02
17593;BME280;8915;51.760;14.300;2023-09-07T03:11:42;101778.50;;;13.26;88.39
17593;BME280;8915;51.760;14.300;2023-09-07T03:14:09;101770.53;;;13.26;88.73
17593;BME280;8915;51.760;14.300;2023-09-07T03:16:35;101773.19;;;13.26;89.01
17593;BME280;8915;51.760;14.300;2023-09-07T03:19:03;101776.19;;;13.25;88.84
17593;BME280;8915;51.760;14.300;2023-09-07T03:21:32;101783.81;;;13.26;89.64
17593;BME280;8915;51.760;14.300;2023-09-07T03:23:58;101783.66;;;13.23;88.96
17593;BME280;8915;51.760;14.300;2023-09-07T03:26:25;101779.47;;;13.22;88.32
17593;BME280;8915;51.760;14.300;2023-09-07T03:28:52;101784.47;;;13.23;88.70
17593;BME280;8915;51.760;14.300;2023-09-07T03:31:19;101780.72;;;13.24;89.00
17593;BME280;8915;51.760;14.300;2023-09-07T03:33:45;101790.22;;;13.25;88.46
17593;BME280;8915;51.760;14.300;2023-09-07T03:36:12;101783.34;;;13.24;86.57
17593;BME280;8915;51.760;14.300;2023-09-07T03:38:42;101789.91;;;13.27;87.55
17593;BME280;8915;51.760;14.300;2023-09-07T03:41:09;101790.38;;;13.29;87.68
17593;BME280;8915;51.760;14.300;2023-09-07T03:43:35;101791.31;;;13.33;88.09
17593;BME280;8915;51.760;14.300;2023-09-07T03:46:02;101792.41;;;13.32;87.00
17593;BME280;8915;51.760;14.300;2023-09-07T03:48:28;101795.84;;;13.32;86.90
17593;BME280;8915;51.760;14.300;2023-09-07T03:50:54;101795.84;;;13.32;85.98
17593;BME280;8915;51.760;14.300;2023-09-07T03:53:21;101798.94;;;13.34;86.49
17593;BME280;8915;51.760;14.300;2023-09-07T03:55:48;101791.44;;;13.36;86.96
17593;BME280;8915;51.760;14.300;2023-09-07T03:58:16;101791.28;;;13.41;88.34
17593;BME280;8915;51.760;14.300;2023-09-07T04:00:44;101797.69;;;13.40;88.42
17593;BME280;8915;51.760;14.300;2023-09-07T04:03:11;101807.22;;;13.41;88.44
17593;BME280;8915;51.760;14.300;2023-09-07T04:05:37;101797.38;;;13.42;88.37
17593;BME280;8915;51.760;14.300;2023-09-07T04:08:04;101800.03;;;13.42;88.35
17593;BME280;8915;51.760;14.300;2023-09-07T04:10:30;101801.91;;;13.41;87.30
17593;BME280;8915;51.760;14.300;2023-09-07T04:12:58;101806.91;;;13.43;88.38
17593;BME280;8915;51.760;14.300;2023-09-07T04:15:24;101805.50;;;13.45;89.30
17593;BME280;8915;51.760;14.300;2023-09-07T04:17:52;101807.69;;;13.43;88.90
17593;BME280;8915;51.760;14.300;2023-09-07T04:20:20;101798.94;;;13.43;89.00
17593;BME280;8915;51.760;14.300;2023-09-07T04:22:46;101796.94;;;13.40;88.26
17593;BME280;8915;51.760;14.300;2023-09-07T04:25:13;101793.78;;;13.38;87.81
17593;BME280;8915;51.760;14.300;2023-09-07T04:27:39;101791.13;;;13.38;88.40
17593;BME280;8915;51.760;14.300;2023-09-07T04:30:09;101797.84;;;13.35;87.94
17593;BME280;8915;51.760;14.300;2023-09-07T04:32:36;101797.09;;;13.35;88.31
17593;BME280;8915;51.760;14.300;2023-09-07T04:35:03;101791.44;;;13.36;88.42
17593;BME280;8915;51.760;14.300;2023-09-07T04:37:30;101789.91;;;13.35;87.55
17593;BME280;8915;51.760;14.300;2023-09-07T04:39:56;101797.53;;;13.37;88.10
17593;BME280;8915;51.760;14.300;2023-09-07T04:42:24;101791.13;;;13.38;87.50
17593;BME280;8915;51.760;14.300;2023-09-07T04:44:50;101791.28;;;13.41;87.92
17593;BME280;8915;51.760;14.300;2023-09-07T04:47:18;101799.44;;;13.45;88.65
17593;BME280;8915;51.760;14.300;2023-09-07T04:49:48;101797.22;;;13.47;89.14
17593;BME280;8915;51.760;14.300;2023-09-07T04:52:16;101798.47;;;13.49;89.17
17593;BME280;8915;51.760;14.300;2023-09-07T04:54:43;101802.97;;;13.49;89.20
17593;BME280;8915;51.760;14.300;2023-09-07T04:57:09;101800.81;;;13.51;89.33
17593;BME280;8915;51.760;14.300;2023-09-07T04:59:36;101805.81;;;13.52;89.61
17593;BME280;8915;51.760;14.300;2023-09-07T05:02:02;101799.72;;;13.52;89.16
17593;BME280;8915;51.760;14.300;2023-09-07T05:04:30;101796.28;;;13.51;87.49
17593;BME280;8915;51.760;14.300;2023-09-07T05:06:58;101800.97;;;13.54;88.54
17593;BME280;8915;51.760;14.300;2023-09-07T05:09:25;101801.91;;;13.58;88.77
17593;BME280;8915;51.760;14.300;2023-09-07T05:11:54;101812.66;;;13.62;87.75
17593;BME280;8915;51.760;14.300;2023-09-07T05:14:21;101803.44;;;13.68;87.51
17593;BME280;8915;51.760;14.300;2023-09-07T05:16:48;101815.44;;;13.74;87.37
17593;BME280;8915;51.760;14.300;2023-09-07T05:19:14;101808.09;;;13.79;88.06
17593;BME280;8915;51.760;14.300;2023-09-07T05:21:42;101818.53;;;13.84;87.54
17593;BME280;8915;51.760;14.300;2023-09-07T05:24:09;101817.88;;;13.87;86.61
17593;BME280;8915;51.760;14.300;2023-09-07T05:26:35;101824.28;;;13.95;85.18
17593;BME280;8915;51.760;14.300;2023-09-07T05:29:01;101833.31;;;14.02;85.38
17593;BME280;8915;51.760;14.300;2023-09-07T05:31:28;101835.78;;;14.07;85.67
17593;BME280;8915;51.760;14.300;2023-09-07T05:33:54;101834.50;;;14.13;83.94
17593;BME280;8915;51.760;14.300;2023-09-07T05:36:20;101829.03;;;14.18;83.40
17593;BME280;8915;51.760;14.300;2023-09-07T05:38:48;101834.34;;;14.27;84.14
17593;BME280;8915;51.760;14.300;2023-09-07T05:41:14;101846.03;;;14.34;83.06
17593;BME280;8915;51.760;14.300;2023-09-07T05:43:41;101837.25;;;14.42;84.37
17593;BME280;8915;51.760;14.300;2023-09-07T05:46:07;101848.47;;;14.48;82.73
17593;BME280;8915;51.760;14.300;2023-09-07T05:48:34;101847.66;;;14.56;84.01
17593;BME280;8915;51.760;14.300;2023-09-07T05:51:00;101849.81;;;14.62;82.92
17593;BME280;8915;51.760;14.300;2023-09-07T05:53:27;101851.31;;;14.72;84.07
17593;BME280;8915;51.760;14.300;2023-09-07T05:55:55;101850.00;;;14.78;82.91
17593;BME280;8915;51.760;14.300;2023-09-07T05:58:21;101848.53;;;14.89;83.42
17593;BME280;8915;51.760;14.300;2023-09-07T06:00:48;101846.47;;;14.94;83.06
17593;BME280;8915;51.760;14.300;2023-09-07T06:03:14;101844.53;;;15.03;82.74
17593;BME280;8915;51.760;14.300;2023-09-07T06:05:41;101843.38;;;15.13;81.94
17593;BME280;8915;51.760;14.300;2023-09-07T06:08:09;101850.63;;;15.24;81.60
17593;BME280;8915;51.760;14.300;2023-09-07T06:10:36;101848.22;;;15.31;82.41
17593;BME280;8915;51.760;14.300;2023-09-07T06:13:05;101855.41;;;15.39;81.92
17593;BME280;8915;51.760;14.300;2023-09-07T06:15:32;101854.22;;;15.49;81.89
17593;BME280;8915;51.760;14.300;2023-09-07T06:17:58;101860.69;;;15.60;81.55
17593;BME280;8915;51.760;14.300;2023-09-07T06:20:25;101858.41;;;15.70;81.70
17593;BME280;8915;51.760;14.300;2023-09-07T06:22:51;101855.97;;;15.77;80.49
17593;BME280;8915;51.760;14.300;2023-09-07T06:25:18;101853.00;;;15.91;80.42
17593;BME280;8915;51.760;14.300;2023-09-07T06:27:45;101858.69;;;16.01;79.93
17593;BME280;8915;51.760;14.300;2023-09-07T06:30:13;101854.16;;;16.14;80.03
17593;BME280;8915;51.760;14.300;2023-09-07T06:32:40;101861.72;;;16.24;79.16
17593;BME280;8915;51.760;14.300;2023-09-07T06:35:08;101863.16;;;16.33;79.56
17593;BME280;8915;51.760;14.300;2023-09-07T06:37:36;101860.84;;;16.44;79.27
17593;BME280;8915;51.760;14.300;2023-09-07T06:40:07;101863.09;;;16.54;78.57
17593;BME280;8915;51.760;14.300;2023-09-07T06:42:33;101866.84;;;16.65;78.19
17593;BME280;8915;51.760;14.300;2023-09-07T06:45:05;101870.97;;;16.74;77.90
17593;BME280;8915;51.760;14.300;2023-09-07T06:47:34;101870.19;;;16.86;77.50
17593;BME280;8915;51.760;14.300;2023-09-07T06:50:01;101871.16;;;16.93;77.64
17593;BME280;8915;51.760;14.300;2023-09-07T06:52:28;101869.13;;;17.02;77.22
17593;BME280;8915;51.760;14.300;2023-09-07T06:54:54;101871.34;;;17.12;77.23
17593;BME280;8915;51.760;14.300;2023-09-07T06:57:22;101873.22;;;17.24;76.98
17593;BME280;8915;51.760;14.300;2023-09-07T06:59:49;101873.16;;;17.36;76.30
17593;BME280;8915;51.760;14.300;2023-09-07T07:02:16;101879.25;;;17.48;76.27
17593;BME280;8915;51.760;14.300;2023-09-07T07:04:43;101869.66;;;17.59;76.11
17593;BME280;8915;51.760;14.300;2023-09-07T07:07:13;101869.94;;;17.70;75.55
17593;BME280;8915;51.760;14.300;2023-09-07T07:09:39;101871.00;;;17.81;75.06
17593;BME280;8915;51.760;14.300;2023-09-07T07:12:06;101872.03;;;17.92;74.46
17593;BME280;8915;51.760;14.300;2023-09-07T07:14:32;101877.22;;;18.00;74.87
17593;BME280;8915;51.760;14.300;2023-09-07T07:16:59;101870.94;;;18.08;74.39
17593;BME280;8915;51.760;14.300;2023-09-07T07:19:27;101878.88;;;18.20;73.35
17593;BME280;8915;51.760;14.300;2023-09-07T07:21:54;101880.38;;;18.33;72.90
17593;BME280;8915;51.760;14.300;2023-09-07T07:24:21;101878.72;;;18.44;71.92
17593;BME280;8915;51.760;14.300;2023-09-07T07:26:48;101887.06;;;18.58;72.47
17593;BME280;8915;51.760;14.300;2023-09-07T07:29:14;101883.09;;;18.68;72.67
17593;BME280;8915;51.760;14.300;2023-09-07T07:31:40;101882.56;;;18.78;72.77
17593;BME280;8915;51.760;14.300;2023-09-07T07:34:07;101889.69;;;18.89;71.86
17593;BME280;8915;51.760;14.300;2023-09-07T07:36:33;101890.78;;;19.04;71.85
17593;BME280;8915;51.760;14.300;2023-09-07T07:39:04;101889.88;;;19.15;70.60
17593;BME280;8915;51.760;14.300;2023-09-07T07:41:32;101888.66;;;19.28;70.60
17593;BME280;8915;51.760;14.300;2023-09-07T07:43:59;101889.63;;;19.39;70.34
17593;BME280;8915;51.760;14.300;2023-09-07T07:46:25;101889.84;;;19.50;70.23
17593;BME280;8915;51.760;14.300;2023-09-07T07:48:51;101888.16;;;19.61;70.02
17593;BME280;8915;51.760;14.300;2023-09-07T07:51:18;101884.19;;;19.74;69.07
17593;BME280;8915;51.760;14.300;2023-09-07T07:53:48;101888.25;;;19.87;68.53
17593;BME280;8915;51.760;14.300;2023-09-07T07:56:16;101885.81;;;20.01;67.98
17593;BME280;8915;51.760;14.300;2023-09-07T07:58:44;101877.28;;;20.14;67.62
17593;BME280;8915;51.760;14.300;2023-09-07T08:01:15;101878.63;;;20.27;66.77
17593;BME280;8915;51.760;14.300;2023-09-07T08:03:42;101882.69;;;20.40;66.21
17593;BME280;8915;51.760;14.300;2023-09-07T08:06:08;101877.13;;;20.52;65.91
17593;BME280;8915;51.760;14.300;2023-09-07T08:08:35;101877.63;;;20.61;66.61
17593;BME280;8915;51.760;14.300;2023-09-07T08:11:02;101882.44;;;20.75;65.43
17593;BME280;8915;51.760;14.300;2023-09-07T08:13:33;101874.88;;;20.84;65.13
17593;BME280;8915;51.760;14.300;2023-09-07T08:16:00;101873.16;;;20.95;63.74
17593;BME280;8915;51.760;14.300;2023-09-07T08:18:26;101878.28;;;21.07;65.18
17593;BME280;8915;51.760;14.300;2023-09-07T08:20:52;101879.91;;;21.15;63.87
17593;BME280;8915;51.760;14.300;2023-09-07T08:23:20;101881.63;;;21.30;63.26
17593;BME280;8915;51.760;14.300;2023-09-07T08:25:47;101877.16;;;21.41;64.09
17593;BME280;8915;51.760;14.300;2023-09-07T08:28:15;101877.69;;;21.53;63.02
17593;BME280;8915;51.760;14.300;2023-09-07T08:30:44;101877.81;;;21.64;62.48
17593;BME280;8915;51.760;14.300;2023-09-07T08:33:11;101878.34;;;21.76;60.86
17593;BME280;8915;51.760;14.300;2023-09-07T08:35:37;101878.88;;;21.89;61.40
17593;BME280;8915;51.760;14.300;2023-09-07T08:38:09;101877.03;;;22.00;59.86
17593;BME280;8915;51.760;14.300;2023-09-07T08:40:36;101879.44;;;22.12;61.15
17593;BME280;8915;51.760;14.300;2023-09-07T08:43:08;101872.63;;;22.21;61.14
17593;BME280;8915;51.760;14.300;2023-09-07T08:45:45;101874.22;;;22.33;61.45
17593;BME280;8915;51.760;14.300;2023-09-07T08:48:15;101879.38;;;22.45;58.47
17593;BME280;8915;51.760;14.300;2023-09-07T08:50:44;101872.88;;;22.53;60.40
17593;BME280;8915;51.760;14.300;2023-09-07T08:53:16;101870.28;;;22.67;58.28
17593;BME280;8915;51.760;14.300;2023-09-07T08:55:43;101872.63;;;22.79;58.79
17593;BME280;8915;51.760;14.300;2023-09-07T08:58:09;101867.69;;;22.88;59.22
17593;BME280;8915;51.760;14.300;2023-09-07T09:00:36;101869.31;;;22.99;58.62
17593;BME280;8915;51.760;14.300;2023-09-07T09:03:03;101872.00;;;23.06;59.31
17593;BME280;8915;51.760;14.300;2023-09-07T09:05:31;101880.94;;;23.21;58.51
17593;BME280;8915;51.760;14.300;2023-09-07T09:08:03;101874.84;;;23.34;57.86
17593;BME280;8915;51.760;14.300;2023-09-07T09:10:30;101880.28;;;23.45;57.45
17593;BME280;8915;51.760;14.300;2023-09-07T09:12:57;101879.91;;;23.57;55.56
17593;BME280;8915;51.760;14.300;2023-09-07T09:15:25;101873.78;;;23.70;54.43
17593;BME280;8915;51.760;14.300;2023-09-07T09:17:51;101884.22;;;23.79;56.60
17593;BME280;8915;51.760;14.300;2023-09-07T09:20:22;101880.78;;;23.89;53.97
17593;BME280;8915;51.760;14.300;2023-09-07T09:22:52;101874.22;;;24.01;56.00
17593;BME280;8915;51.760;14.300;2023-09-07T09:25:18;101871.56;;;24.11;55.18
17593;BME280;8915;51.760;14.300;2023-09-07T09:27:46;101871.53;;;24.22;54.16
17593;BME280;8915;51.760;14.300;2023-09-07T09:30:12;101875.41;;;24.31;53.42
17593;BME280;8915;51.760;14.300;2023-09-07T09:32:41;101879.25;;;24.41;52.90
17593;BME280;8915;51.760;14.300;2023-09-07T09:35:08;101873.44;;;24.49;52.18
17593;BME280;8915;51.760;14.300;2023-09-07T09:37:34;101866.13;;;24.60;50.89
17593;BME280;8915;51.760;14.300;2023-09-07T09:40:11;101867.28;;;24.70;50.59
17593;BME280;8915;51.760;14.300;2023-09-07T09:42:37;101868.41;;;24.76;52.81
17593;BME280;8915;51.760;14.300;2023-09-07T09:45:05;101869.91;;;24.84;52.01
17593;BME280;8915;51.760;14.300;2023-09-07T09:47:35;101862.53;;;24.95;51.07
17593;BME280;8915;51.760;14.300;2023-09-07T09:50:06;101860.19;;;25.04;52.52
17593;BME280;8915;51.760;14.300;2023-09-07T09:52:33;101859.78;;;25.09;49.28
17593;BME280;8915;51.760;14.300;2023-09-07T09:55:02;101848.56;;;25.14;49.72
17593;BME280;8915;51.760;14.300;2023-09-07T09:57:32;101841.59;;;25.20;50.95
17593;BME280;8915;51.760;14.300;2023-09-07T09:59:59;101840.44;;;25.28;49.95
17593;BME280;8915;51.760;14.300;2023-09-07T10:02:38;101843.47;;;25.33;50.99
17593;BME280;8915;51.760;14.300;2023-09-07T10:05:07;101845.00;;;25.38;50.66
17593;BME280;8915;51.760;14.300;2023-09-07T10:07:42;101845.75;;;25.42;50.21
17593;BME280;8915;51.760;14.300;2023-09-07T10:10:09;101841.84;;;25.50;48.48
17593;BME280;8915;51.760;14.300;2023-09-07T10:12:40;101840.66;;;25.58;46.06
17593;BME280;8915;51.760;14.300;2023-09-07T10:15:19;101842.13;;;25.66;45.93
17593;BME280;8915;51.760;14.300;2023-09-07T10:17:46;101846.69;;;25.76;46.48
17593;BME280;8915;51.760;14.300;2023-09-07T10:20:15;101833.91;;;25.80;43.88
17593;BME280;8915;51.760;14.300;2023-09-07T10:22:41;101842.34;;;25.85;44.49
17593;BME280;8915;51.760;14.300;2023-09-07T10:25:18;101837.69;;;25.93;43.35
17593;BME280;8915;51.760;14.300;2023-09-07T10:27:46;101832.97;;;26.00;42.92
17593;BME280;8915;51.760;14.300;2023-09-07T10:30:13;101841.84;;;26.04;41.97
17593;BME280;8915;51.760;14.300;2023-09-07T10:32:44;101831.75;;;26.08;45.16
17593;BME280;8915;51.760;14.300;2023-09-07T10:35:14;101836.72;;;26.17;42.66
17593;BME280;8915;51.760;14.300;2023-09-07T10:37:44;101825.06;;;26.23;43.81
17593;BME280;8915;51.760;14.300;2023-09-07T10:40:11;101828.47;;;26.27;43.73
17593;BME280;8915;51.760;14.300;2023-09-07T10:42:37;101834.63;;;26.31;43.50
17593;BME280;8915;51.760;14.300;2023-09-07T10:45:10;101825.72;;;26.34;38.75
17593;BME280;8915;51.760;14.300;2023-09-07T10:47:40;101818.31;;;26.38;40.25
17593;BME280;8915;51.760;14.300;2023-09-07T10:50:07;101815.88;;;26.47;39.32
17593;BME280;8915;51.760;14.300;2023-09-07T10:52:33;101823.19;;;26.54;39.68
17593;BME280;8915;51.760;14.300;2023-09-07T10:55:00;101812.72;;;26.59;39.25
17593;BME280;8915;51.760;14.300;2023-09-07T10:57:26;101813.03;;;26.65;37.86
17593;BME280;8915;51.760;14.300;2023-09-07T10:59:53;101809.88;;;26.70;39.51
17593;BME280;8915;51.760;14.300;2023-09-07T11:02:21;101816.03;;;26.74;39.59
17593;BME280;8915;51.760;14.300;2023-09-07T11:04:48;101814.78;;;26.78;39.74
17593;BME280;8915;51.760;14.300;2023-09-07T11:07:14;101806.59;;;26.82;39.00
17593;BME280;8915;51.760;14.300;2023-09-07T11:09:41;101809.66;;;26.87;38.86
17593;BME280;8915;51.760;14.300;2023-09-07T11:12:12;101815.41;;;26.93;39.06
17593;BME280;8915;51.760;14.300;2023-09-07T11:14:38;101810.28;;;26.98;38.94
17593;BME280;8915;51.760;14.300;2023-09-07T11:17:05;101810.22;;;27.02;39.05
17593;BME280;8915;51.760;14.300;2023-09-07T11:19:33;101803.22;;;27.04;40.59
17593;BME280;8915;51.760;14.300;2023-09-07T11:21:59;101804.34;;;27.10;38.67
17593;BME280;8915;51.760;14.300;2023-09-07T11:24:29;101803.50;;;27.13;39.19
17593;BME280;8915;51.760;14.300;2023-09-07T11:26:57;101813.13;;;27.18;38.56
17593;BME280;8915;51.760;14.300;2023-09-07T11:29:24;101812.00;;;27.19;39.88
17593;BME280;8915;51.760;14.300;2023-09-07T11:31:51;101803.41;;;27.24;38.44
17593;BME280;8915;51.760;14.300;2023-09-07T11:34:17;101805.28;;;27.27;38.11
17593;BME280;8915;51.760;14.300;2023-09-07T11:36:45;101809.88;;;27.30;39.84
17593;BME280;8915;51.760;14.300;2023-09-07T11:39:11;101807.91;;;27.34;39.28
17593;BME280;8915;51.760;14.300;2023-09-07T11:41:38;101802.81;;;27.36;40.14
17593;BME280;8915;51.760;14.300;2023-09-07T11:44:06;101802.78;;;27.39;38.29
17593;BME280;8915;51.760;14.300;2023-09-07T11:46:32;101803.09;;;27.45;37.45
17593;BME280;8915;51.760;14.300;2023-09-07T11:48:58;101810.03;;;27.46;38.90
17593;BME280;8915;51.760;14.300;2023-09-07T11:51:25;101805.75;;;27.48;39.33
17593;BME280;8915;51.760;14.300;2023-09-07T11:53:53;101809.94;;;27.53;39.20
17593;BME280;8915;51.760;14.300;2023-09-07T11:56:19;101797.13;;;27.53;39.46
17593;BME280;8915;51.760;14.300;2023-09-07T11:58:46;101803.28;;;27.57;37.99
17593;BME280;8915;51.760;14.300;2023-09-07T12:01:13;101803.56;;;27.63;37.94
17593;BME280;8915;51.760;14.300;2023-09-07T12:03:41;101807.41;;;27.65;38.89
17593;BME280;8915;51.760;14.300;2023-09-07T12:06:08;101800.38;;;27.68;38.70
17593;BME280;8915;51.760;14.300;2023-09-07T12:08:34;101803.50;;;27.66;37.50
17593;BME280;8915;51.760;14.300;2023-09-07T12:11:02;101795.66;;;27.72;37.92
17593;BME280;8915;51.760;14.300;2023-09-07T12:13:28;101796.72;;;27.78;37.04
17593;BME280;8915;51.760;14.300;2023-09-07T12:15:54;101798.22;;;27.82;36.43
17593;BME280;8915;51.760;14.300;2023-09-07T12:18:21;101796.63;;;27.85;37.22
17593;BME280;8915;51.760;14.300;2023-09-07T12:20:49;101795.03;;;27.87;37.65
17593;BME280;8915;51.760;14.300;2023-09-07T12:23:15;101792.69;;;27.89;38.42
17593;BME280;8915;51.760;14.300;2023-09-07T12:25:41;101792.28;;;27.91;38.50
17593;BME280;8915;51.760;14.300;2023-09-07T12:28:09;101784.81;;;27.95;36.28
17593;BME280;8915;51.760;14.300;2023-09-07T12:30:35;101778.56;;;27.98;36.94
17593;BME280;8915;51.760;14.300;2023-09-07T12:33:02;101772.38;;;27.97;36.22
17593;BME280;8915;51.760;14.300;2023-09-07T12:35:28;101780.53;;;27.97;37.21
17593;BME280;8915;51.760;14.300;2023-09-07T12:37:54;101769.25;;;27.99;36.02
17593;BME280;8915;51.760;14.300;2023-09-07T12:40:21;101769.97;;;28.03;36.62
17593;BME280;8915;51.760;14.300;2023-09-07T12:42:47;101761.75;;;28.06;36.07
17593;BME280;8915;51.760;14.300;2023-09-07T12:45:15;101766.69;;;28.11;38.00
17593;BME280;8915;51.760;14.300;2023-09-07T12:47:41;101758.88;;;28.13;37.73
17593;BME280;8915;51.760;14.300;2023-09-07T12:50:08;101749.91;;;28.16;37.59